sensor_id;sensor_type;location;lat;lon;timestamp;P1;durP1;ratioP1;P2;durP2;ratioP2
61962;SDS011;47927;42.646;23.096;2023-02-23T00:01:32;6.13;;;2.80;;
61962;SDS011;47927;42.646;23.096;2023-02-23T00:03:58;6.25;;;3.08;;
61962;SDS011;47927;42.646;23.096;2023-02-23T00:06:26;6.93;;;3.15;;
61962;SDS011;47927;42.646;23.096;2023-02-23T00:08:53;5.22;;;2.45;;
61962;SDS011;47927;42.646;23.096;2023-02-23T00:11:19;6.93;;;3.25;;
61962;SDS011;47927;42.646;23.096;2023-02-23T00:13:45;6.32;;;2.85;;
61962;SDS011;47927;42.646;23.096;2023-02-23T00:16:16;5.65;;;2.70;;
61962;SDS011;47927;42.646;23.096;2023-02-23T00:18:48;5.93;;;3.10;;
61962;SDS011;47927;42.646;23.096;2023-02-23T00:21:16;6.82;;;2.80;;
61962;SDS011;47927;42.646;23.096;2023-02-23T00:23:47;7.03;;;2.92;;
61962;SDS011;47927;42.646;23.096;2023-02-23T00:26:17;5.13;;;2.80;;
61962;SDS011;47927;42.646;23.096;2023-02-23T00:28:45;7.30;;;3.67;;
61962;SDS011;47927;42.646;23.096;2023-02-23T00:31:12;6.30;;;3.38;;
61962;SDS011;47927;42.646;23.096;2023-02-23T00:33:38;7.78;;;3.53;;
61962;SDS011;47927;42.646;23.096;2023-02-23T00:36:07;5.55;;;3.15;;
61962;SDS011;47927;42.646;23.096;2023-02-23T00:38:38;5.70;;;2.90;;
61962;SDS011;47927;42.646;23.096;2023-02-23T00:43:32;6.68;;;3.08;;
61962;SDS011;47927;42.646;23.096;2023-02-23T00:45:59;6.32;;;3.30;;
61962;SDS011;47927;42.646;23.096;2023-02-23T00:48:30;8.35;;;3.85;;
61962;SDS011;47927;42.646;23.096;2023-02-23T00:51:03;6.63;;;3.00;;
61962;SDS011;47927;42.646;23.096;2023-02-23T00:53:30;6.20;;;2.80;;
61962;SDS011;47927;42.646;23.096;2023-02-23T00:55:56;5.75;;;3.28;;
61962;SDS011;47927;42.646;23.096;2023-02-23T00:58:23;6.63;;;3.08;;
61962;SDS011;47927;42.646;23.096;2023-02-23T01:00:49;5.72;;;3.08;;
61962;SDS011;47927;42.646;23.096;2023-02-23T01:03:18;6.15;;;3.60;;
61962;SDS011;47927;42.646;23.096;2023-02-23T01:05:44;6.68;;;3.53;;
61962;SDS011;47927;42.646;23.096;2023-02-23T01:08:10;5.28;;;2.92;;
61962;SDS011;47927;42.646;23.096;2023-02-23T01:10:40;6.80;;;2.97;;
61962;SDS011;47927;42.646;23.096;2023-02-23T01:13:16;8.00;;;3.13;;
61962;SDS011;47927;42.646;23.096;2023-02-23T01:15:43;6.18;;;2.97;;
61962;SDS011;47927;42.646;23.096;2023-02-23T01:18:09;6.43;;;3.05;;
61962;SDS011;47927;42.646;23.096;2023-02-23T01:20:36;7.30;;;2.70;;
61962;SDS011;47927;42.646;23.096;2023-02-23T01:23:02;6.60;;;3.13;;
61962;SDS011;47927;42.646;23.096;2023-02-23T01:25:29;8.50;;;3.30;;
61962;SDS011;47927;42.646;23.096;2023-02-23T01:27:55;11.07;;;3.08;;
61962;SDS011;47927;42.646;23.096;2023-02-23T01:30:20;5.28;;;2.60;;
61962;SDS011;47927;42.646;23.096;2023-02-23T01:32:46;6.95;;;2.83;;
61962;SDS011;47927;42.646;23.096;2023-02-23T01:35:13;7.70;;;3.17;;
61962;SDS011;47927;42.646;23.096;2023-02-23T01:37:40;6.90;;;2.92;;
61962;SDS011;47927;42.646;23.096;2023-02-23T01:40:14;8.73;;;3.53;;
61962;SDS011;47927;42.646;23.096;2023-02-23T01:43:12;6.13;;;2.67;;
61962;SDS011;47927;42.646;23.096;2023-02-23T01:45:41;5.45;;;2.90;;
61962;SDS011;47927;42.646;23.096;2023-02-23T01:48:09;6.70;;;3.17;;
61962;SDS011;47927;42.646;23.096;2023-02-23T01:53:15;7.07;;;3.13;;
61962;SDS011;47927;42.646;23.096;2023-02-23T01:55:41;5.60;;;2.92;;
61962;SDS011;47927;42.646;23.096;2023-02-23T01:58:11;6.75;;;2.90;;
61962;SDS011;47927;42.646;23.096;2023-02-23T02:00:43;5.88;;;3.00;;
61962;SDS011;47927;42.646;23.096;2023-02-23T02:03:16;6.50;;;3.60;;
61962;SDS011;47927;42.646;23.096;2023-02-23T02:05:48;5.75;;;2.85;;
61962;SDS011;47927;42.646;23.096;2023-02-23T02:08:15;5.18;;;2.95;;
61962;SDS011;47927;42.646;23.096;2023-02-23T02:10:43;10.45;;;3.97;;
61962;SDS011;47927;42.646;23.096;2023-02-23T02:13:11;6.22;;;2.70;;
61962;SDS011;47927;42.646;23.096;2023-02-23T02:15:47;7.57;;;3.28;;
61962;SDS011;47927;42.646;23.096;2023-02-23T02:18:28;8.45;;;3.42;;
61962;SDS011;47927;42.646;23.096;2023-02-23T02:21:21;7.70;;;2.90;;
61962;SDS011;47927;42.646;23.096;2023-02-23T02:27:01;6.63;;;2.90;;
61962;SDS011;47927;42.646;23.096;2023-02-23T02:29:46;4.57;;;2.40;;
61962;SDS011;47927;42.646;23.096;2023-02-23T02:41:04;7.22;;;2.72;;
61962;SDS011;47927;42.646;23.096;2023-02-23T02:44:04;5.97;;;3.15;;
61962;SDS011;47927;42.646;23.096;2023-02-23T02:46:52;5.40;;;2.53;;
61962;SDS011;47927;42.646;23.096;2023-02-23T02:49:25;4.65;;;2.53;;
61962;SDS011;47927;42.646;23.096;2023-02-23T02:54:38;6.30;;;2.40;;
61962;SDS011;47927;42.646;23.096;2023-02-23T02:59:41;4.22;;;2.40;;
61962;SDS011;47927;42.646;23.096;2023-02-23T03:02:26;5.95;;;2.20;;
61962;SDS011;47927;42.646;23.096;2023-02-23T03:05:15;6.97;;;2.80;;
61962;SDS011;47927;42.646;23.096;2023-02-23T03:08:08;4.50;;;2.53;;
61962;SDS011;47927;42.646;23.096;2023-02-23T03:11:01;6.90;;;2.72;;
61962;SDS011;47927;42.646;23.096;2023-02-23T03:17:11;5.38;;;2.58;;
61962;SDS011;47927;42.646;23.096;2023-02-23T03:20:26;6.38;;;2.60;;
61962;SDS011;47927;42.646;23.096;2023-02-23T03:23:18;5.10;;;2.35;;
61962;SDS011;47927;42.646;23.096;2023-02-23T03:29:30;5.93;;;2.72;;
61962;SDS011;47927;42.646;23.096;2023-02-23T03:32:32;5.35;;;2.65;;
61962;SDS011;47927;42.646;23.096;2023-02-23T03:35:24;4.65;;;2.53;;
61962;SDS011;47927;42.646;23.096;2023-02-23T03:41:43;5.13;;;2.70;;
61962;SDS011;47927;42.646;23.096;2023-02-23T03:44:32;5.30;;;3.10;;
61962;SDS011;47927;42.646;23.096;2023-02-23T03:47:21;5.93;;;2.95;;
61962;SDS011;47927;42.646;23.096;2023-02-23T03:50:14;5.68;;;2.60;;
61962;SDS011;47927;42.646;23.096;2023-02-23T03:53:05;5.80;;;2.72;;
61962;SDS011;47927;42.646;23.096;2023-02-23T03:55:53;6.97;;;2.72;;
61962;SDS011;47927;42.646;23.096;2023-02-23T03:58:42;4.97;;;2.42;;
61962;SDS011;47927;42.646;23.096;2023-02-23T04:01:33;6.05;;;2.90;;
61962;SDS011;47927;42.646;23.096;2023-02-23T04:04:18;7.22;;;2.70;;
61962;SDS011;47927;42.646;23.096;2023-02-23T04:07:05;6.57;;;2.63;;
61962;SDS011;47927;42.646;23.096;2023-02-23T04:09:50;5.10;;;2.88;;
61962;SDS011;47927;42.646;23.096;2023-02-23T04:15:37;5.93;;;2.70;;
61962;SDS011;47927;42.646;23.096;2023-02-23T04:18:10;6.65;;;3.35;;
61962;SDS011;47927;42.646;23.096;2023-02-23T04:20:38;4.95;;;2.35;;
61962;SDS011;47927;42.646;23.096;2023-02-23T04:23:03;5.75;;;2.88;;
61962;SDS011;47927;42.646;23.096;2023-02-23T04:25:30;7.47;;;3.40;;
61962;SDS011;47927;42.646;23.096;2023-02-23T04:27:55;7.10;;;2.63;;
61962;SDS011;47927;42.646;23.096;2023-02-23T04:30:21;5.15;;;2.45;;
61962;SDS011;47927;42.646;23.096;2023-02-23T04:32:52;6.82;;;2.78;;
61962;SDS011;47927;42.646;23.096;2023-02-23T04:35:19;5.70;;;2.75;;
61962;SDS011;47927;42.646;23.096;2023-02-23T04:37:44;6.53;;;2.70;;
61962;SDS011;47927;42.646;23.096;2023-02-23T04:40:10;5.70;;;2.30;;
61962;SDS011;47927;42.646;23.096;2023-02-23T04:42:39;5.60;;;3.05;;
61962;SDS011;47927;42.646;23.096;2023-02-23T04:45:05;6.07;;;2.58;;
61962;SDS011;47927;42.646;23.096;2023-02-23T04:47:31;5.82;;;2.50;;
61962;SDS011;47927;42.646;23.096;2023-02-23T04:50:16;6.18;;;2.75;;
61962;SDS011;47927;42.646;23.096;2023-02-23T04:52:42;5.22;;;2.55;;
61962;SDS011;47927;42.646;23.096;2023-02-23T04:55:12;7.10;;;3.05;;
61962;SDS011;47927;42.646;23.096;2023-02-23T04:57:41;7.15;;;2.38;;
61962;SDS011;47927;42.646;23.096;2023-02-23T05:00:07;4.63;;;2.67;;
61962;SDS011;47927;42.646;23.096;2023-02-23T05:02:33;6.85;;;2.95;;
61962;SDS011;47927;42.646;23.096;2023-02-23T05:04:59;6.25;;;3.08;;
61962;SDS011;47927;42.646;23.096;2023-02-23T05:07:24;5.63;;;2.95;;
61962;SDS011;47927;42.646;23.096;2023-02-23T05:09:50;5.93;;;2.47;;
61962;SDS011;47927;42.646;23.096;2023-02-23T05:12:15;4.43;;;2.55;;
61962;SDS011;47927;42.646;23.096;2023-02-23T05:14:41;8.20;;;3.15;;
61962;SDS011;47927;42.646;23.096;2023-02-23T05:17:06;7.50;;;3.22;;
61962;SDS011;47927;42.646;23.096;2023-02-23T05:19:32;7.18;;;3.20;;
61962;SDS011;47927;42.646;23.096;2023-02-23T05:21:58;9.52;;;4.07;;
61962;SDS011;47927;42.646;23.096;2023-02-23T05:24:23;14.80;;;4.07;;
61962;SDS011;47927;42.646;23.096;2023-02-23T05:26:49;5.22;;;2.80;;
61962;SDS011;47927;42.646;23.096;2023-02-23T05:29:15;7.22;;;3.53;;
61962;SDS011;47927;42.646;23.096;2023-02-23T05:31:41;6.32;;;3.30;;
61962;SDS011;47927;42.646;23.096;2023-02-23T05:34:06;6.55;;;2.92;;
61962;SDS011;47927;42.646;23.096;2023-02-23T05:36:32;5.03;;;2.78;;
61962;SDS011;47927;42.646;23.096;2023-02-23T05:38:57;6.82;;;3.50;;
61962;SDS011;47927;42.646;23.096;2023-02-23T05:41:23;12.10;;;3.80;;
61962;SDS011;47927;42.646;23.096;2023-02-23T05:43:49;7.68;;;3.85;;
61962;SDS011;47927;42.646;23.096;2023-02-23T05:46:18;8.30;;;3.22;;
61962;SDS011;47927;42.646;23.096;2023-02-23T05:48:45;6.07;;;3.17;;
61962;SDS011;47927;42.646;23.096;2023-02-23T05:51:12;15.48;;;3.45;;
61962;SDS011;47927;42.646;23.096;2023-02-23T05:53:39;8.68;;;3.20;;
61962;SDS011;47927;42.646;23.096;2023-02-23T05:56:06;6.47;;;3.53;;
61962;SDS011;47927;42.646;23.096;2023-02-23T05:58:35;7.57;;;3.65;;
61962;SDS011;47927;42.646;23.096;2023-02-23T06:01:01;4.95;;;2.92;;
61962;SDS011;47927;42.646;23.096;2023-02-23T06:03:28;5.10;;;2.88;;
61962;SDS011;47927;42.646;23.096;2023-02-23T06:05:54;7.80;;;3.35;;
61962;SDS011;47927;42.646;23.096;2023-02-23T06:08:22;7.57;;;3.95;;
61962;SDS011;47927;42.646;23.096;2023-02-23T06:10:49;7.93;;;3.30;;
61962;SDS011;47927;42.646;23.096;2023-02-23T06:13:15;5.97;;;3.58;;
61962;SDS011;47927;42.646;23.096;2023-02-23T06:15:41;7.53;;;4.20;;
61962;SDS011;47927;42.646;23.096;2023-02-23T06:18:07;8.35;;;3.88;;
61962;SDS011;47927;42.646;23.096;2023-02-23T06:20:36;8.00;;;3.95;;
61962;SDS011;47927;42.646;23.096;2023-02-23T06:23:02;12.85;;;10.65;;
61962;SDS011;47927;42.646;23.096;2023-02-23T06:25:28;22.08;;;12.90;;
61962;SDS011;47927;42.646;23.096;2023-02-23T06:27:55;11.55;;;7.20;;
61962;SDS011;47927;42.646;23.096;2023-02-23T06:30:20;10.13;;;6.80;;
61962;SDS011;47927;42.646;23.096;2023-02-23T06:32:46;12.40;;;8.27;;
61962;SDS011;47927;42.646;23.096;2023-02-23T06:35:15;10.05;;;6.45;;
61962;SDS011;47927;42.646;23.096;2023-02-23T06:37:41;12.38;;;6.80;;
61962;SDS011;47927;42.646;23.096;2023-02-23T06:40:07;11.10;;;7.22;;
61962;SDS011;47927;42.646;23.096;2023-02-23T06:42:34;14.77;;;8.23;;
61962;SDS011;47927;42.646;23.096;2023-02-23T06:45:01;13.55;;;9.43;;
61962;SDS011;47927;42.646;23.096;2023-02-23T06:47:27;14.10;;;9.35;;
61962;SDS011;47927;42.646;23.096;2023-02-23T06:49:53;13.18;;;8.75;;
61962;SDS011;47927;42.646;23.096;2023-02-23T06:52:19;14.13;;;8.95;;
61962;SDS011;47927;42.646;23.096;2023-02-23T06:54:44;16.30;;;8.70;;
61962;SDS011;47927;42.646;23.096;2023-02-23T06:57:10;13.13;;;8.38;;
61962;SDS011;47927;42.646;23.096;2023-02-23T06:59:35;12.85;;;9.00;;
61962;SDS011;47927;42.646;23.096;2023-02-23T07:02:02;15.70;;;9.93;;
61962;SDS011;47927;42.646;23.096;2023-02-23T07:04:29;13.02;;;8.27;;
61962;SDS011;47927;42.646;23.096;2023-02-23T07:06:55;19.00;;;8.82;;
61962;SDS011;47927;42.646;23.096;2023-02-23T07:09:21;14.88;;;8.52;;
61962;SDS011;47927;42.646;23.096;2023-02-23T07:11:46;16.13;;;8.85;;
61962;SDS011;47927;42.646;23.096;2023-02-23T07:14:12;15.70;;;9.32;;
61962;SDS011;47927;42.646;23.096;2023-02-23T07:16:38;23.35;;;10.27;;
61962;SDS011;47927;42.646;23.096;2023-02-23T07:19:04;18.35;;;10.57;;
61962;SDS011;47927;42.646;23.096;2023-02-23T07:21:31;21.60;;;11.77;;
61962;SDS011;47927;42.646;23.096;2023-02-23T07:23:58;21.13;;;12.27;;
61962;SDS011;47927;42.646;23.096;2023-02-23T07:26:24;21.45;;;11.95;;
61962;SDS011;47927;42.646;23.096;2023-02-23T07:28:50;21.02;;;11.85;;
61962;SDS011;47927;42.646;23.096;2023-02-23T07:31:15;20.20;;;10.18;;
61962;SDS011;47927;42.646;23.096;2023-02-23T07:33:41;20.05;;;11.18;;
61962;SDS011;47927;42.646;23.096;2023-02-23T07:36:07;18.50;;;10.23;;
61962;SDS011;47927;42.646;23.096;2023-02-23T07:38:32;18.02;;;10.07;;
61962;SDS011;47927;42.646;23.096;2023-02-23T07:40:58;15.25;;;9.27;;
61962;SDS011;47927;42.646;23.096;2023-02-23T07:43:24;15.57;;;8.70;;
61962;SDS011;47927;42.646;23.096;2023-02-23T07:45:50;17.38;;;8.05;;
61962;SDS011;47927;42.646;23.096;2023-02-23T07:48:16;16.80;;;8.90;;
61962;SDS011;47927;42.646;23.096;2023-02-23T07:50:42;15.15;;;8.30;;
61962;SDS011;47927;42.646;23.096;2023-02-23T07:53:08;12.23;;;6.90;;
61962;SDS011;47927;42.646;23.096;2023-02-23T07:55:35;13.13;;;8.15;;
61962;SDS011;47927;42.646;23.096;2023-02-23T07:58:03;10.02;;;5.65;;
61962;SDS011;47927;42.646;23.096;2023-02-23T08:00:30;16.15;;;8.15;;
61962;SDS011;47927;42.646;23.096;2023-02-23T08:02:57;7.80;;;5.57;;
61962;SDS011;47927;42.646;23.096;2023-02-23T08:05:23;12.80;;;7.13;;
61962;SDS011;47927;42.646;23.096;2023-02-23T08:07:50;16.75;;;9.00;;
61962;SDS011;47927;42.646;23.096;2023-02-23T08:10:16;16.20;;;9.43;;
61962;SDS011;47927;42.646;23.096;2023-02-23T08:12:41;20.13;;;9.90;;
61962;SDS011;47927;42.646;23.096;2023-02-23T08:15:08;20.50;;;9.88;;
61962;SDS011;47927;42.646;23.096;2023-02-23T08:17:34;23.75;;;11.55;;
61962;SDS011;47927;42.646;23.096;2023-02-23T08:20:00;20.50;;;10.60;;
61962;SDS011;47927;42.646;23.096;2023-02-23T08:22:26;28.15;;;12.23;;
61962;SDS011;47927;42.646;23.096;2023-02-23T08:24:52;23.83;;;10.77;;
61962;SDS011;47927;42.646;23.096;2023-02-23T08:27:17;22.52;;;11.25;;
61962;SDS011;47927;42.646;23.096;2023-02-23T08:29:44;20.92;;;10.50;;
61962;SDS011;47927;42.646;23.096;2023-02-23T08:32:09;24.27;;;10.70;;
61962;SDS011;47927;42.646;23.096;2023-02-23T08:34:41;23.45;;;10.70;;
61962;SDS011;47927;42.646;23.096;2023-02-23T08:37:08;23.25;;;10.80;;
61962;SDS011;47927;42.646;23.096;2023-02-23T08:39:34;24.85;;;11.43;;
61962;SDS011;47927;42.646;23.096;2023-02-23T08:42:00;29.48;;;11.43;;
61962;SDS011;47927;42.646;23.096;2023-02-23T08:44:26;30.00;;;11.63;;
61962;SDS011;47927;42.646;23.096;2023-02-23T08:46:52;32.58;;;13.00;;
61962;SDS011;47927;42.646;23.096;2023-02-23T08:49:19;28.15;;;11.68;;
61962;SDS011;47927;42.646;23.096;2023-02-23T08:51:45;31.80;;;11.23;;
61962;SDS011;47927;42.646;23.096;2023-02-23T08:54:11;26.67;;;10.77;;
61962;SDS011;47927;42.646;23.096;2023-02-23T08:56:39;30.38;;;11.00;;
61962;SDS011;47927;42.646;23.096;2023-02-23T08:59:06;40.92;;;11.38;;
61962;SDS011;47927;42.646;23.096;2023-02-23T09:01:31;27.77;;;11.00;;
61962;SDS011;47927;42.646;23.096;2023-02-23T09:03:57;29.27;;;10.30;;
61962;SDS011;47927;42.646;23.096;2023-02-23T09:06:24;30.63;;;9.60;;
61962;SDS011;47927;42.646;23.096;2023-02-23T09:08:50;27.05;;;9.68;;
61962;SDS011;47927;42.646;23.096;2023-02-23T09:11:18;26.10;;;10.02;;
61962;SDS011;47927;42.646;23.096;2023-02-23T09:13:44;21.52;;;9.00;;
61962;SDS011;47927;42.646;23.096;2023-02-23T09:16:10;21.98;;;9.38;;
61962;SDS011;47927;42.646;23.096;2023-02-23T09:18:35;31.65;;;9.45;;
61962;SDS011;47927;42.646;23.096;2023-02-23T09:21:02;23.23;;;9.23;;
61962;SDS011;47927;42.646;23.096;2023-02-23T09:23:32;20.67;;;8.95;;
61962;SDS011;47927;42.646;23.096;2023-02-23T09:26:05;21.65;;;9.13;;
61962;SDS011;47927;42.646;23.096;2023-02-23T09:28:32;18.88;;;8.32;;
61962;SDS011;47927;42.646;23.096;2023-02-23T09:31:05;22.08;;;7.20;;
61962;SDS011;47927;42.646;23.096;2023-02-23T09:33:32;18.48;;;7.72;;
61962;SDS011;47927;42.646;23.096;2023-02-23T09:35:58;22.42;;;7.53;;
61962;SDS011;47927;42.646;23.096;2023-02-23T09:38:23;15.32;;;7.10;;
61962;SDS011;47927;42.646;23.096;2023-02-23T09:40:50;11.77;;;6.55;;
61962;SDS011;47927;42.646;23.096;2023-02-23T09:48:42;10.10;;;5.05;;
61962;SDS011;47927;42.646;23.096;2023-02-23T09:51:09;16.85;;;7.03;;
61962;SDS011;47927;42.646;23.096;2023-02-23T09:53:41;12.77;;;6.00;;
61962;SDS011;47927;42.646;23.096;2023-02-23T09:58:54;12.80;;;5.43;;
61962;SDS011;47927;42.646;23.096;2023-02-23T10:01:23;14.43;;;5.97;;
61962;SDS011;47927;42.646;23.096;2023-02-23T10:04:16;9.13;;;4.95;;
61962;SDS011;47927;42.646;23.096;2023-02-23T10:06:44;11.30;;;5.13;;
61962;SDS011;47927;42.646;23.096;2023-02-23T10:15:02;9.93;;;5.65;;
61962;SDS011;47927;42.646;23.096;2023-02-23T10:17:54;9.60;;;5.35;;
61962;SDS011;47927;42.646;23.096;2023-02-23T10:20:57;10.13;;;5.20;;
61962;SDS011;47927;42.646;23.096;2023-02-23T10:23:36;10.10;;;5.30;;
61962;SDS011;47927;42.646;23.096;2023-02-23T10:26:07;11.60;;;4.57;;
61962;SDS011;47927;42.646;23.096;2023-02-23T10:28:40;10.25;;;4.55;;
61962;SDS011;47927;42.646;23.096;2023-02-23T10:31:27;10.82;;;5.40;;
61962;SDS011;47927;42.646;23.096;2023-02-23T10:33:59;7.80;;;4.38;;
61962;SDS011;47927;42.646;23.096;2023-02-23T10:36:37;8.75;;;4.55;;
61962;SDS011;47927;42.646;23.096;2023-02-23T10:39:08;7.60;;;4.32;;
61962;SDS011;47927;42.646;23.096;2023-02-23T10:41:37;7.88;;;4.40;;
61962;SDS011;47927;42.646;23.096;2023-02-23T10:44:03;6.57;;;3.63;;
61962;SDS011;47927;42.646;23.096;2023-02-23T10:46:38;5.95;;;3.50;;
61962;SDS011;47927;42.646;23.096;2023-02-23T10:49:05;8.32;;;4.25;;
61962;SDS011;47927;42.646;23.096;2023-02-23T10:51:35;6.95;;;3.55;;
61962;SDS011;47927;42.646;23.096;2023-02-23T10:57:01;5.10;;;3.17;;
61962;SDS011;47927;42.646;23.096;2023-02-23T10:59:28;7.53;;;3.50;;
61962;SDS011;47927;42.646;23.096;2023-02-23T11:01:55;5.82;;;4.05;;
61962;SDS011;47927;42.646;23.096;2023-02-23T11:06:49;7.90;;;4.05;;
61962;SDS011;47927;42.646;23.096;2023-02-23T11:11:55;6.63;;;4.00;;
61962;SDS011;47927;42.646;23.096;2023-02-23T11:14:23;6.63;;;3.80;;
61962;SDS011;47927;42.646;23.096;2023-02-23T11:16:52;7.37;;;3.70;;
61962;SDS011;47927;42.646;23.096;2023-02-23T11:19:40;6.60;;;3.70;;
61962;SDS011;47927;42.646;23.096;2023-02-23T11:22:05;7.95;;;3.65;;
61962;SDS011;47927;42.646;23.096;2023-02-23T11:24:32;6.43;;;3.90;;
61962;SDS011;47927;42.646;23.096;2023-02-23T11:27:20;7.43;;;4.03;;
61962;SDS011;47927;42.646;23.096;2023-02-23T11:29:49;9.80;;;4.25;;
61962;SDS011;47927;42.646;23.096;2023-02-23T11:37:36;5.80;;;3.60;;
61962;SDS011;47927;42.646;23.096;2023-02-23T11:40:11;6.65;;;3.13;;
61962;SDS011;47927;42.646;23.096;2023-02-23T11:42:56;7.55;;;3.28;;
61962;SDS011;47927;42.646;23.096;2023-02-23T11:45:49;6.03;;;3.00;;
61962;SDS011;47927;42.646;23.096;2023-02-23T11:51:08;7.07;;;3.67;;
61962;SDS011;47927;42.646;23.096;2023-02-23T11:53:35;7.30;;;3.83;;
61962;SDS011;47927;42.646;23.096;2023-02-23T11:56:05;6.03;;;3.17;;
61962;SDS011;47927;42.646;23.096;2023-02-23T12:01:11;10.07;;;3.85;;
61962;SDS011;47927;42.646;23.096;2023-02-23T12:04:21;5.85;;;3.13;;
61962;SDS011;47927;42.646;23.096;2023-02-23T12:11:49;10.10;;;6.68;;
61962;SDS011;47927;42.646;23.096;2023-02-23T12:14:38;14.10;;;6.30;;
61962;SDS011;47927;42.646;23.096;2023-02-23T12:17:22;10.05;;;5.97;;
61962;SDS011;47927;42.646;23.096;2023-02-23T12:20:05;10.32;;;6.47;;
61962;SDS011;47927;42.646;23.096;2023-02-23T12:22:44;10.15;;;6.70;;
61962;SDS011;47927;42.646;23.096;2023-02-23T12:33:20;10.45;;;5.63;;
61962;SDS011;47927;42.646;23.096;2023-02-23T12:38:58;11.95;;;6.32;;
61962;SDS011;47927;42.646;23.096;2023-02-23T12:41:34;11.70;;;6.72;;
61962;SDS011;47927;42.646;23.096;2023-02-23T12:46:45;10.82;;;6.50;;
61962;SDS011;47927;42.646;23.096;2023-02-23T12:52:30;14.60;;;6.65;;
61962;SDS011;47927;42.646;23.096;2023-02-23T12:54:57;10.63;;;6.80;;
61962;SDS011;47927;42.646;23.096;2023-02-23T13:06:15;9.55;;;6.15;;
61962;SDS011;47927;42.646;23.096;2023-02-23T13:08:55;10.48;;;6.75;;
61962;SDS011;47927;42.646;23.096;2023-02-23T13:16:56;12.85;;;6.40;;
61962;SDS011;47927;42.646;23.096;2023-02-23T13:22:11;11.20;;;5.80;;
61962;SDS011;47927;42.646;23.096;2023-02-23T13:24:42;10.55;;;6.18;;
61962;SDS011;47927;42.646;23.096;2023-02-23T13:29:42;15.57;;;5.85;;
61962;SDS011;47927;42.646;23.096;2023-02-23T13:32:11;15.80;;;6.60;;
61962;SDS011;47927;42.646;23.096;2023-02-23T13:34:43;8.98;;;5.43;;
61962;SDS011;47927;42.646;23.096;2023-02-23T13:37:14;10.23;;;5.38;;
61962;SDS011;47927;42.646;23.096;2023-02-23T13:50:59;9.93;;;4.85;;
61962;SDS011;47927;42.646;23.096;2023-02-23T13:53:40;7.53;;;4.15;;
61962;SDS011;47927;42.646;23.096;2023-02-23T13:56:17;8.82;;;5.65;;
61962;SDS011;47927;42.646;23.096;2023-02-23T13:58:50;9.00;;;4.43;;
61962;SDS011;47927;42.646;23.096;2023-02-23T14:01:25;6.50;;;3.90;;
61962;SDS011;47927;42.646;23.096;2023-02-23T14:03:56;8.75;;;4.57;;
61962;SDS011;47927;42.646;23.096;2023-02-23T14:06:25;8.80;;;4.40;;
61962;SDS011;47927;42.646;23.096;2023-02-23T14:08:54;11.43;;;4.90;;
61962;SDS011;47927;42.646;23.096;2023-02-23T14:11:27;12.18;;;4.85;;
61962;SDS011;47927;42.646;23.096;2023-02-23T14:14:02;10.50;;;5.30;;
61962;SDS011;47927;42.646;23.096;2023-02-23T14:16:28;15.15;;;4.50;;
61962;SDS011;47927;42.646;23.096;2023-02-23T14:21:50;8.98;;;4.63;;
61962;SDS011;47927;42.646;23.096;2023-02-23T14:24:30;10.50;;;4.88;;
61962;SDS011;47927;42.646;23.096;2023-02-23T14:29:40;8.35;;;4.57;;
61962;SDS011;47927;42.646;23.096;2023-02-23T14:34:43;11.65;;;4.30;;
61962;SDS011;47927;42.646;23.096;2023-02-23T14:37:24;11.60;;;3.95;;
61962;SDS011;47927;42.646;23.096;2023-02-23T14:40:10;8.25;;;4.75;;
61962;SDS011;47927;42.646;23.096;2023-02-23T14:42:37;7.32;;;4.05;;
61962;SDS011;47927;42.646;23.096;2023-02-23T14:45:22;5.57;;;3.58;;
61962;SDS011;47927;42.646;23.096;2023-02-23T14:47:51;7.65;;;4.13;;
61962;SDS011;47927;42.646;23.096;2023-02-23T14:53:17;6.90;;;3.88;;
61962;SDS011;47927;42.646;23.096;2023-02-23T14:55:45;7.07;;;3.97;;
61962;SDS011;47927;42.646;23.096;2023-02-23T14:58:20;7.78;;;4.30;;
61962;SDS011;47927;42.646;23.096;2023-02-23T15:00:59;6.13;;;3.78;;
61962;SDS011;47927;42.646;23.096;2023-02-23T15:03:25;7.35;;;4.28;;
61962;SDS011;47927;42.646;23.096;2023-02-23T15:05:54;5.55;;;3.35;;
61962;SDS011;47927;42.646;23.096;2023-02-23T15:08:22;10.23;;;4.15;;
61962;SDS011;47927;42.646;23.096;2023-02-23T15:10:51;9.77;;;4.38;;
61962;SDS011;47927;42.646;23.096;2023-02-23T15:13:31;10.18;;;3.70;;
61962;SDS011;47927;42.646;23.096;2023-02-23T15:16:04;9.63;;;4.70;;
61962;SDS011;47927;42.646;23.096;2023-02-23T15:18:35;15.05;;;4.28;;
61962;SDS011;47927;42.646;23.096;2023-02-23T15:21:08;7.03;;;4.10;;
61962;SDS011;47927;42.646;23.096;2023-02-23T15:23:38;6.90;;;4.13;;
61962;SDS011;47927;42.646;23.096;2023-02-23T15:28:48;8.20;;;4.20;;
61962;SDS011;47927;42.646;23.096;2023-02-23T15:31:13;8.23;;;4.45;;
61962;SDS011;47927;42.646;23.096;2023-02-23T15:33:38;8.43;;;4.82;;
61962;SDS011;47927;42.646;23.096;2023-02-23T15:38:41;11.82;;;4.10;;
61962;SDS011;47927;42.646;23.096;2023-02-23T15:41:12;10.07;;;3.83;;
61962;SDS011;47927;42.646;23.096;2023-02-23T15:43:46;6.55;;;3.72;;
61962;SDS011;47927;42.646;23.096;2023-02-23T15:46:17;7.25;;;3.78;;
61962;SDS011;47927;42.646;23.096;2023-02-23T15:48:48;9.52;;;3.60;;
61962;SDS011;47927;42.646;23.096;2023-02-23T15:53:56;6.70;;;3.40;;
61962;SDS011;47927;42.646;23.096;2023-02-23T15:56:28;5.55;;;3.20;;
61962;SDS011;47927;42.646;23.096;2023-02-23T15:58:56;5.45;;;2.90;;
61962;SDS011;47927;42.646;23.096;2023-02-23T16:01:29;5.40;;;3.33;;
61962;SDS011;47927;42.646;23.096;2023-02-23T16:12:01;7.97;;;3.92;;
61962;SDS011;47927;42.646;23.096;2023-02-23T16:14:33;7.85;;;3.50;;
61962;SDS011;47927;42.646;23.096;2023-02-23T16:17:09;7.80;;;3.90;;
61962;SDS011;47927;42.646;23.096;2023-02-23T16:20:05;6.00;;;3.53;;
61962;SDS011;47927;42.646;23.096;2023-02-23T16:23:54;9.75;;;4.20;;
61962;SDS011;47927;42.646;23.096;2023-02-23T16:29:24;8.70;;;4.80;;
61962;SDS011;47927;42.646;23.096;2023-02-23T16:31:57;9.80;;;4.15;;
61962;SDS011;47927;42.646;23.096;2023-02-23T16:36:59;12.57;;;4.90;;
61962;SDS011;47927;42.646;23.096;2023-02-23T16:39:28;5.50;;;3.63;;
61962;SDS011;47927;42.646;23.096;2023-02-23T16:41:55;7.18;;;4.20;;
61962;SDS011;47927;42.646;23.096;2023-02-23T16:44:23;7.45;;;4.13;;
61962;SDS011;47927;42.646;23.096;2023-02-23T16:49:20;6.95;;;4.28;;
61962;SDS011;47927;42.646;23.096;2023-02-23T16:51:47;7.28;;;4.38;;
61962;SDS011;47927;42.646;23.096;2023-02-23T16:54:16;8.18;;;4.68;;
61962;SDS011;47927;42.646;23.096;2023-02-23T16:56:41;7.45;;;4.90;;
61962;SDS011;47927;42.646;23.096;2023-02-23T16:59:09;11.25;;;4.32;;
61962;SDS011;47927;42.646;23.096;2023-02-23T17:01:39;8.57;;;4.00;;
61962;SDS011;47927;42.646;23.096;2023-02-23T17:04:08;8.98;;;4.50;;
61962;SDS011;47927;42.646;23.096;2023-02-23T17:06:42;12.45;;;4.80;;
61962;SDS011;47927;42.646;23.096;2023-02-23T17:09:09;10.70;;;5.53;;
61962;SDS011;47927;42.646;23.096;2023-02-23T17:11:36;9.55;;;4.97;;
61962;SDS011;47927;42.646;23.096;2023-02-23T17:14:04;9.30;;;4.93;;
61962;SDS011;47927;42.646;23.096;2023-02-23T17:16:30;9.35;;;5.20;;
61962;SDS011;47927;42.646;23.096;2023-02-23T17:18:55;11.60;;;4.75;;
61962;SDS011;47927;42.646;23.096;2023-02-23T17:21:23;7.82;;;4.65;;
61962;SDS011;47927;42.646;23.096;2023-02-23T17:24:08;10.55;;;4.80;;
61962;SDS011;47927;42.646;23.096;2023-02-23T17:26:33;14.07;;;4.80;;
61962;SDS011;47927;42.646;23.096;2023-02-23T17:28:59;9.48;;;5.25;;